sensor_id;sensor_type;location;lat;lon;timestamp;pressure;altitude;pressure_sealevel;temperature;humidity
55916;BME280;41826;53.246;-6.670;2023-02-18T00:02:11;101441.44;;;10.87;100.00
55916;BME280;41826;53.246;-6.670;2023-02-18T00:04:36;101445.28;;;10.82;100.00
55916;BME280;41826;53.246;-6.670;2023-02-18T00:07:02;101454.59;;;10.87;100.00
55916;BME280;41826;53.246;-6.670;2023-02-18T00:09:27;101454.03;;;10.72;100.00
55916;BME280;41826;53.246;-6.670;2023-02-18T00:11:53;101441.47;;;10.75;100.00
55916;BME280;41826;53.246;-6.670;2023-02-18T00:14:18;101436.94;;;10.77;100.00
55916;BME280;41826;53.246;-6.670;2023-02-18T00:16:44;101433.53;;;10.66;100.00
55916;BME280;41826;53.246;-6.670;2023-02-18T00:19:15;101425.06;;;10.62;100.00
55916;BME280;41826;53.246;-6.670;2023-02-18T00:21:42;101423.63;;;10.69;100.00
55916;BME280;41826;53.246;-6.670;2023-02-18T00:24:08;101412.06;;;10.60;100.00
55916;BME280;41826;53.246;-6.670;2023-02-18T00:26:34;101394.34;;;10.74;100.00
55916;BME280;41826;53.246;-6.670;2023-02-18T00:29:00;101391.31;;;10.78;100.00
55916;BME280;41826;53.246;-6.670;2023-02-18T00:31:32;101401.38;;;10.73;100.00
55916;BME280;41826;53.246;-6.670;2023-02-18T00:33:58;101380.50;;;10.72;100.00
55916;BME280;41826;53.246;-6.670;2023-02-18T00:36:25;101388.50;;;10.70;100.00
55916;BME280;41826;53.246;-6.670;2023-02-18T00:38:53;101390.25;;;10.81;100.00
55916;BME280;41826;53.246;-6.670;2023-02-18T00:41:21;101385.88;;;10.70;100.00
55916;BME280;41826;53.246;-6.670;2023-02-18T00:43:46;101381.09;;;10.75;100.00
55916;BME280;41826;53.246;-6.670;2023-02-18T00:46:12;101377.38;;;10.78;100.00
55916;BME280;41826;53.246;-6.670;2023-02-18T00:48:38;101375.13;;;10.73;100.00
55916;BME280;41826;53.246;-6.670;2023-02-18T00:51:05;101374.19;;;10.74;100.00
55916;BME280;41826;53.246;-6.670;2023-02-18T00:53:30;101365.47;;;10.74;100.00
55916;BME280;41826;53.246;-6.670;2023-02-18T00:55:56;101355.41;;;10.79;100.00
55916;BME280;41826;53.246;-6.670;2023-02-18T00:58:21;101339.84;;;10.66;100.00
55916;BME280;41826;53.246;-6.670;2023-02-18T01:00:48;101340.03;;;10.74;100.00
55916;BME280;41826;53.246;-6.670;2023-02-18T01:03:14;101328.28;;;10.78;100.00
55916;BME280;41826;53.246;-6.670;2023-02-18T01:05:40;101332.41;;;10.71;100.00
55916;BME280;41826;53.246;-6.670;2023-02-18T01:08:07;101320.94;;;10.72;100.00
55916;BME280;41826;53.246;-6.670;2023-02-18T01:10:34;101303.66;;;10.70;100.00
55916;BME280;41826;53.246;-6.670;2023-02-18T01:13:00;101295.06;;;10.68;100.00
55916;BME280;41826;53.246;-6.670;2023-02-18T01:15:26;101292.31;;;10.69;100.00
55916;BME280;41826;53.246;-6.670;2023-02-18T01:17:51;101295.38;;;10.74;100.00
55916;BME280;41826;53.246;-6.670;2023-02-18T01:20:18;101281.56;;;10.72;100.00
55916;BME280;41826;53.246;-6.670;2023-02-18T01:22:43;101277.28;;;10.71;100.00
55916;BME280;41826;53.246;-6.670;2023-02-18T01:25:09;101262.84;;;10.66;100.00
55916;BME280;41826;53.246;-6.670;2023-02-18T01:27:36;101263.88;;;10.74;100.00
55916;BME280;41826;53.246;-6.670;2023-02-18T01:30:03;101252.63;;;10.62;100.00
55916;BME280;41826;53.246;-6.670;2023-02-18T01:32:29;101245.56;;;10.63;100.00
55916;BME280;41826;53.246;-6.670;2023-02-18T01:34:54;101227.63;;;10.68;100.00
55916;BME280;41826;53.246;-6.670;2023-02-18T01:37:20;101217.97;;;10.69;100.00
55916;BME280;41826;53.246;-6.670;2023-02-18T01:39:45;101222.13;;;10.71;100.00
55916;BME280;41826;53.246;-6.670;2023-02-18T01:42:19;101208.81;;;10.63;100.00
55916;BME280;41826;53.246;-6.670;2023-02-18T01:44:51;101211.22;;;10.76;100.00
55916;BME280;41826;53.246;-6.670;2023-02-18T01:47:18;101207.78;;;10.85;100.00
55916;BME280;41826;53.246;-6.670;2023-02-18T01:49:47;101209.88;;;10.81;100.00
55916;BME280;41826;53.246;-6.670;2023-02-18T01:52:18;101211.66;;;10.81;100.00
55916;BME280;41826;53.246;-6.670;2023-02-18T01:54:51;101208.34;;;10.89;100.00
55916;BME280;41826;53.246;-6.670;2023-02-18T01:57:24;101199.97;;;10.95;100.00
55916;BME280;41826;53.246;-6.670;2023-02-18T01:59:56;101190.38;;;10.84;100.00
55916;BME280;41826;53.246;-6.670;2023-02-18T02:02:25;101191.66;;;10.90;100.00
55916;BME280;41826;53.246;-6.670;2023-02-18T02:04:51;101178.81;;;10.96;100.00
55916;BME280;41826;53.246;-6.670;2023-02-18T02:07:18;101192.63;;;10.98;100.00
55916;BME280;41826;53.246;-6.670;2023-02-18T02:09:46;101187.13;;;11.01;100.00
55916;BME280;41826;53.246;-6.670;2023-02-18T02:12:36;101180.47;;;10.97;100.00
55916;BME280;41826;53.246;-6.670;2023-02-18T02:15:37;101177.16;;;10.95;100.00
55916;BME280;41826;53.246;-6.670;2023-02-18T02:32:04;101195.16;;;11.10;100.00
55916;BME280;41826;53.246;-6.670;2023-02-18T02:40:21;101187.00;;;11.13;100.00
55916;BME280;41826;53.246;-6.670;2023-02-18T02:50:45;101195.44;;;11.16;100.00
55916;BME280;41826;53.246;-6.670;2023-02-18T02:53:21;101193.38;;;11.10;100.00
55916;BME280;41826;53.246;-6.670;2023-02-18T02:55:48;101212.34;;;11.23;100.00
55916;BME280;41826;53.246;-6.670;2023-02-18T02:58:16;101215.00;;;11.33;100.00
55916;BME280;41826;53.246;-6.670;2023-02-18T03:06:21;101265.09;;;11.41;100.00
55916;BME280;41826;53.246;-6.670;2023-02-18T03:09:07;101285.44;;;11.49;100.00
55916;BME280;41826;53.246;-6.670;2023-02-18T03:11:42;101301.22;;;11.49;100.00
55916;BME280;41826;53.246;-6.670;2023-02-18T03:17:22;101334.28;;;11.52;100.00
55916;BME280;41826;53.246;-6.670;2023-02-18T03:19:54;101335.00;;;11.54;100.00
55916;BME280;41826;53.246;-6.670;2023-02-18T03:22:24;101357.00;;;11.53;100.00
55916;BME280;41826;53.246;-6.670;2023-02-18T03:24:53;101383.69;;;11.48;100.00
55916;BME280;41826;53.246;-6.670;2023-02-18T03:27:23;101391.47;;;11.49;100.00
55916;BME280;41826;53.246;-6.670;2023-02-18T03:30:22;101400.44;;;11.47;100.00
55916;BME280;41826;53.246;-6.670;2023-02-18T03:32:54;101418.16;;;11.45;100.00
55916;BME280;41826;53.246;-6.670;2023-02-18T03:35:21;101416.03;;;11.39;100.00
55916;BME280;41826;53.246;-6.670;2023-02-18T03:37:57;101427.13;;;11.42;100.00
55916;BME280;41826;53.246;-6.670;2023-02-18T03:40:28;101440.28;;;11.42;100.00
55916;BME280;41826;53.246;-6.670;2023-02-18T03:42:56;101452.19;;;11.46;100.00
55916;BME280;41826;53.246;-6.670;2023-02-18T03:45:22;101453.41;;;11.42;100.00
55916;BME280;41826;53.246;-6.670;2023-02-18T03:47:48;101456.88;;;11.43;100.00
55916;BME280;41826;53.246;-6.670;2023-02-18T03:50:13;101470.97;;;11.42;100.00
55916;BME280;41826;53.246;-6.670;2023-02-18T03:52:38;101474.56;;;11.41;100.00
55916;BME280;41826;53.246;-6.670;2023-02-18T03:55:04;101479.38;;;11.36;100.00
55916;BME280;41826;53.246;-6.670;2023-02-18T03:57:30;101482.53;;;11.30;100.00
55916;BME280;41826;53.246;-6.670;2023-02-18T03:59:55;101482.84;;;11.15;100.00
55916;BME280;41826;53.246;-6.670;2023-02-18T04:02:20;101477.28;;;11.30;100.00
55916;BME280;41826;53.246;-6.670;2023-02-18T04:04:46;101476.03;;;11.34;100.00
55916;BME280;41826;53.246;-6.670;2023-02-18T04:07:11;101481.00;;;11.27;100.00
55916;BME280;41826;53.246;-6.670;2023-02-18T04:09:36;101487.34;;;11.24;100.00
55916;BME280;41826;53.246;-6.670;2023-02-18T04:12:02;101476.63;;;11.16;100.00
55916;BME280;41826;53.246;-6.670;2023-02-18T04:14:27;101480.66;;;11.20;100.00
55916;BME280;41826;53.246;-6.670;2023-02-18T04:16:53;101475.97;;;11.24;100.00
55916;BME280;41826;53.246;-6.670;2023-02-18T04:19:18;101479.75;;;11.31;100.00
55916;BME280;41826;53.246;-6.670;2023-02-18T04:21:44;101486.81;;;11.31;100.00
55916;BME280;41826;53.246;-6.670;2023-02-18T04:24:09;101481.69;;;11.29;100.00
55916;BME280;41826;53.246;-6.670;2023-02-18T04:26:34;101478.22;;;11.28;100.00
55916;BME280;41826;53.246;-6.670;2023-02-18T04:29:00;101482.59;;;11.18;100.00
55916;BME280;41826;53.246;-6.670;2023-02-18T04:31:25;101500.88;;;11.20;100.00
55916;BME280;41826;53.246;-6.670;2023-02-18T04:33:51;101504.84;;;11.14;100.00
55916;BME280;41826;53.246;-6.670;2023-02-18T04:36:16;101508.03;;;11.18;100.00
55916;BME280;41826;53.246;-6.670;2023-02-18T04:38:41;101510.59;;;11.08;100.00
55916;BME280;41826;53.246;-6.670;2023-02-18T04:41:07;101513.81;;;11.12;100.00
55916;BME280;41826;53.246;-6.670;2023-02-18T04:43:33;101517.75;;;11.06;100.00
55916;BME280;41826;53.246;-6.670;2023-02-18T04:45:58;101531.94;;;10.82;100.00
55916;BME280;41826;53.246;-6.670;2023-02-18T04:48:23;101522.47;;;10.91;100.00
55916;BME280;41826;53.246;-6.670;2023-02-18T04:50:49;101522.41;;;10.81;100.00
55916;BME280;41826;53.246;-6.670;2023-02-18T04:53:14;101505.56;;;10.84;100.00
55916;BME280;41826;53.246;-6.670;2023-02-18T04:55:40;101502.81;;;10.85;100.00
55916;BME280;41826;53.246;-6.670;2023-02-18T04:58:05;101494.47;;;10.80;100.00
55916;BME280;41826;53.246;-6.670;2023-02-18T05:00:30;101506.03;;;10.89;100.00
55916;BME280;41826;53.246;-6.670;2023-02-18T05:02:56;101513.09;;;10.77;100.00
55916;BME280;41826;53.246;-6.670;2023-02-18T05:05:21;101509.50;;;10.90;100.00
55916;BME280;41826;53.246;-6.670;2023-02-18T05:07:47;101521.34;;;10.73;100.00
55916;BME280;41826;53.246;-6.670;2023-02-18T05:10:15;101524.31;;;10.79;100.00
55916;BME280;41826;53.246;-6.670;2023-02-18T05:12:41;101535.28;;;10.41;100.00
55916;BME280;41826;53.246;-6.670;2023-02-18T05:15:07;101526.56;;;10.40;100.00
55916;BME280;41826;53.246;-6.670;2023-02-18T05:17:33;101526.44;;;10.53;100.00
55916;BME280;41826;53.246;-6.670;2023-02-18T05:19:58;101538.28;;;10.36;100.00
55916;BME280;41826;53.246;-6.670;2023-02-18T05:22:24;101531.81;;;10.52;100.00
55916;BME280;41826;53.246;-6.670;2023-02-18T05:24:49;101528.91;;;10.55;100.00
55916;BME280;41826;53.246;-6.670;2023-02-18T05:27:15;101537.00;;;10.63;100.00
55916;BME280;41826;53.246;-6.670;2023-02-18T05:29:40;101538.81;;;10.62;100.00
55916;BME280;41826;53.246;-6.670;2023-02-18T05:32:06;101543.97;;;10.53;100.00
55916;BME280;41826;53.246;-6.670;2023-02-18T05:34:31;101550.91;;;10.31;100.00
55916;BME280;41826;53.246;-6.670;2023-02-18T05:36:57;101559.75;;;10.41;100.00
55916;BME280;41826;53.246;-6.670;2023-02-18T05:39:22;101570.00;;;10.56;100.00
55916;BME280;41826;53.246;-6.670;2023-02-18T05:41:48;101580.00;;;10.39;100.00
55916;BME280;41826;53.246;-6.670;2023-02-18T05:44:13;101585.97;;;10.53;100.00
55916;BME280;41826;53.246;-6.670;2023-02-18T05:47:16;101589.34;;;10.44;100.00
55916;BME280;41826;53.246;-6.670;2023-02-18T05:49:41;101584.19;;;10.53;100.00
55916;BME280;41826;53.246;-6.670;2023-02-18T05:52:08;101586.22;;;10.61;100.00
55916;BME280;41826;53.246;-6.670;2023-02-18T05:54:35;101583.81;;;10.58;100.00
55916;BME280;41826;53.246;-6.670;2023-02-18T05:57:01;101591.34;;;10.40;100.00
55916;BME280;41826;53.246;-6.670;2023-02-18T05:59:27;101591.94;;;10.32;100.00
55916;BME280;41826;53.246;-6.670;2023-02-18T06:01:52;101578.22;;;10.51;100.00
55916;BME280;41826;53.246;-6.670;2023-02-18T06:04:18;101565.56;;;10.56;100.00
55916;BME280;41826;53.246;-6.670;2023-02-18T06:06:44;101566.28;;;10.47;100.00
55916;BME280;41826;53.246;-6.670;2023-02-18T06:09:10;101565.81;;;10.53;100.00
55916;BME280;41826;53.246;-6.670;2023-02-18T06:11:35;101566.97;;;10.60;100.00
55916;BME280;41826;53.246;-6.670;2023-02-18T06:14:01;101561.53;;;10.30;100.00
55916;BME280;41826;53.246;-6.670;2023-02-18T06:16:27;101556.63;;;10.48;100.00
55916;BME280;41826;53.246;-6.670;2023-02-18T06:18:53;101542.06;;;10.32;100.00
55916;BME280;41826;53.246;-6.670;2023-02-18T06:21:18;101559.00;;;10.17;100.00
55916;BME280;41826;53.246;-6.670;2023-02-18T06:23:44;101544.69;;;9.98;100.00
55916;BME280;41826;53.246;-6.670;2023-02-18T06:26:10;101539.22;;;10.13;100.00
55916;BME280;41826;53.246;-6.670;2023-02-18T06:28:35;101523.84;;;10.08;100.00
55916;BME280;41826;53.246;-6.670;2023-02-18T06:31:01;101515.13;;;10.08;100.00
55916;BME280;41826;53.246;-6.670;2023-02-18T06:33:26;101511.91;;;10.04;100.00
55916;BME280;41826;53.246;-6.670;2023-02-18T06:36:11;101519.66;;;10.06;100.00
55916;BME280;41826;53.246;-6.670;2023-02-18T06:38:41;101521.56;;;10.26;100.00
55916;BME280;41826;53.246;-6.670;2023-02-18T06:41:07;101534.31;;;10.08;100.00
55916;BME280;41826;53.246;-6.670;2023-02-18T06:43:33;101539.56;;;10.19;100.00
55916;BME280;41826;53.246;-6.670;2023-02-18T06:45:59;101547.47;;;10.31;100.00
55916;BME280;41826;53.246;-6.670;2023-02-18T06:48:24;101546.09;;;10.25;100.00
55916;BME280;41826;53.246;-6.670;2023-02-18T06:50:50;101534.78;;;10.25;100.00
55916;BME280;41826;53.246;-6.670;2023-02-18T06:53:15;101529.31;;;10.28;100.00
55916;BME280;41826;53.246;-6.670;2023-02-18T06:55:44;101535.16;;;10.31;100.00
55916;BME280;41826;53.246;-6.670;2023-02-18T06:58:10;101538.28;;;10.36;100.00
55916;BME280;41826;53.246;-6.670;2023-02-18T07:00:37;101534.78;;;10.25;100.00
55916;BME280;41826;53.246;-6.670;2023-02-18T07:03:03;101516.78;;;10.20;100.00
55916;BME280;41826;53.246;-6.670;2023-02-18T07:05:29;101520.38;;;10.30;100.00
55916;BME280;41826;53.246;-6.670;2023-02-18T07:07:54;101518.81;;;10.16;100.00
55916;BME280;41826;53.246;-6.670;2023-02-18T07:10:20;101511.31;;;10.23;100.00
55916;BME280;41826;53.246;-6.670;2023-02-18T07:12:45;101508.31;;;10.28;100.00
55916;BME280;41826;53.246;-6.670;2023-02-18T07:15:11;101503.28;;;10.25;100.00
55916;BME280;41826;53.246;-6.670;2023-02-18T07:17:36;101499.00;;;10.12;100.00
55916;BME280;41826;53.246;-6.670;2023-02-18T07:20:03;101489.13;;;10.16;100.00
55916;BME280;41826;53.246;-6.670;2023-02-18T07:22:29;101471.72;;;10.04;100.00
55916;BME280;41826;53.246;-6.670;2023-02-18T07:24:54;101472.06;;;10.22;100.00
55916;BME280;41826;53.246;-6.670;2023-02-18T07:27:20;101492.22;;;10.32;100.00
55916;BME280;41826;53.246;-6.670;2023-02-18T07:29:46;101490.31;;;10.23;100.00
55916;BME280;41826;53.246;-6.670;2023-02-18T07:32:13;101497.72;;;10.29;100.00
55916;BME280;41826;53.246;-6.670;2023-02-18T07:34:39;101507.03;;;10.33;100.00
55916;BME280;41826;53.246;-6.670;2023-02-18T07:37:04;101506.28;;;10.43;100.00
55916;BME280;41826;53.246;-6.670;2023-02-18T07:39:43;101528.34;;;10.40;100.00
55916;BME280;41826;53.246;-6.670;2023-02-18T07:42:09;101533.13;;;10.35;100.00
55916;BME280;41826;53.246;-6.670;2023-02-18T07:44:35;101534.22;;;10.32;100.00
55916;BME280;41826;53.246;-6.670;2023-02-18T07:47:02;101537.41;;;10.25;100.00
55916;BME280;41826;53.246;-6.670;2023-02-18T07:49:27;101539.69;;;10.29;100.00
55916;BME280;41826;53.246;-6.670;2023-02-18T07:51:53;101547.22;;;10.34;100.00
55916;BME280;41826;53.246;-6.670;2023-02-18T07:54:18;101545.91;;;10.28;100.00
55916;BME280;41826;53.246;-6.670;2023-02-18T07:56:44;101554.00;;;10.36;100.00
55916;BME280;41826;53.246;-6.670;2023-02-18T07:59:11;101559.03;;;10.39;100.00
55916;BME280;41826;53.246;-6.670;2023-02-18T08:01:38;101567.59;;;10.30;100.00
55916;BME280;41826;53.246;-6.670;2023-02-18T08:04:03;101570.25;;;10.41;100.00
55916;BME280;41826;53.246;-6.670;2023-02-18T08:06:32;101584.50;;;10.15;100.00
55916;BME280;41826;53.246;-6.670;2023-02-18T08:08:58;101577.03;;;10.10;100.00
55916;BME280;41826;53.246;-6.670;2023-02-18T08:11:24;101574.25;;;10.12;100.00
55916;BME280;41826;53.246;-6.670;2023-02-18T08:13:49;101582.16;;;10.23;100.00
55916;BME280;41826;53.246;-6.670;2023-02-18T08:16:17;101583.91;;;10.23;100.00
55916;BME280;41826;53.246;-6.670;2023-02-18T08:18:42;101596.47;;;10.30;100.00
55916;BME280;41826;53.246;-6.670;2023-02-18T08:21:08;101600.41;;;10.13;100.00
55916;BME280;41826;53.246;-6.670;2023-02-18T08:23:34;101603.72;;;10.27;100.00
55916;BME280;41826;53.246;-6.670;2023-02-18T08:25:59;101617.94;;;10.24;100.00
55916;BME280;41826;53.246;-6.670;2023-02-18T08:28:26;101612.00;;;10.33;100.00
55916;BME280;41826;53.246;-6.670;2023-02-18T08:30:53;101620.78;;;10.21;100.00
55916;BME280;41826;53.246;-6.670;2023-02-18T08:33:19;101631.88;;;10.25;100.00
55916;BME280;41826;53.246;-6.670;2023-02-18T08:35:46;101633.94;;;10.32;100.00
55916;BME280;41826;53.246;-6.670;2023-02-18T08:38:12;101635.16;;;10.51;100.00
55916;BME280;41826;53.246;-6.670;2023-02-18T08:40:38;101640.63;;;10.36;100.00
55916;BME280;41826;53.246;-6.670;2023-02-18T08:43:05;101650.41;;;10.46;100.00
55916;BME280;41826;53.246;-6.670;2023-02-18T08:45:30;101656.47;;;10.35;100.00
55916;BME280;41826;53.246;-6.670;2023-02-18T08:47:56;101659.00;;;10.48;100.00
55916;BME280;41826;53.246;-6.670;2023-02-18T08:50:21;101660.41;;;10.40;100.00
55916;BME280;41826;53.246;-6.670;2023-02-18T08:52:53;101667.50;;;10.51;100.00
55916;BME280;41826;53.246;-6.670;2023-02-18T08:55:19;101660.91;;;10.57;100.00
55916;BME280;41826;53.246;-6.670;2023-02-18T08:57:51;101652.78;;;10.60;100.00
55916;BME280;41826;53.246;-6.670;2023-02-18T09:00:18;101660.44;;;10.74;100.00
55916;BME280;41826;53.246;-6.670;2023-02-18T09:02:44;101662.22;;;10.74;100.00
55916;BME280;41826;53.246;-6.670;2023-02-18T09:05:09;101663.16;;;10.73;100.00
55916;BME280;41826;53.246;-6.670;2023-02-18T09:07:36;101672.94;;;10.71;100.00
55916;BME280;41826;53.246;-6.670;2023-02-18T09:10:02;101673.91;;;10.81;100.00
55916;BME280;41826;53.246;-6.670;2023-02-18T09:12:28;101662.69;;;10.90;100.00
55916;BME280;41826;53.246;-6.670;2023-02-18T09:14:53;101676.19;;;10.74;100.00
55916;BME280;41826;53.246;-6.670;2023-02-18T09:17:19;101665.94;;;10.71;100.00
55916;BME280;41826;53.246;-6.670;2023-02-18T09:19:45;101678.44;;;10.90;100.00
55916;BME280;41826;53.246;-6.670;2023-02-18T09:22:10;101676.53;;;10.92;100.00
55916;BME280;41826;53.246;-6.670;2023-02-18T09:24:42;101680.72;;;10.95;100.00
55916;BME280;41826;53.246;-6.670;2023-02-18T09:27:10;101699.00;;;10.74;100.00
55916;BME280;41826;53.246;-6.670;2023-02-18T09:29:49;101700.06;;;10.71;100.00
55916;BME280;41826;53.246;-6.670;2023-02-18T09:32:17;101704.72;;;10.90;100.00
55916;BME280;41826;53.246;-6.670;2023-02-18T09:34:46;101708.16;;;10.91;100.00
55916;BME280;41826;53.246;-6.670;2023-02-18T09:37:11;101701.22;;;11.01;100.00
55916;BME280;41826;53.246;-6.670;2023-02-18T09:39:39;101706.84;;;11.07;100.00
55916;BME280;41826;53.246;-6.670;2023-02-18T09:42:10;101707.91;;;10.94;100.00
55916;BME280;41826;53.246;-6.670;2023-02-18T09:44:42;101691.22;;;10.95;100.00
55916;BME280;41826;53.246;-6.670;2023-02-18T09:47:13;101703.66;;;10.81;100.00
55916;BME280;41826;53.246;-6.670;2023-02-18T09:49:46;101694.31;;;11.00;100.00
55916;BME280;41826;53.246;-6.670;2023-02-18T09:52:38;101689.53;;;10.94;100.00
55916;BME280;41826;53.246;-6.670;2023-02-18T09:57:54;101684.75;;;11.10;100.00
55916;BME280;41826;53.246;-6.670;2023-02-18T10:00:29;101687.72;;;11.05;100.00
55916;BME280;41826;53.246;-6.670;2023-02-18T10:03:12;101681.28;;;10.98;100.00
55916;BME280;41826;53.246;-6.670;2023-02-18T10:05:45;101687.50;;;10.86;100.00
55916;BME280;41826;53.246;-6.670;2023-02-18T10:08:20;101688.22;;;10.99;100.00
55916;BME280;41826;53.246;-6.670;2023-02-18T10:10:47;101712.94;;;10.97;100.00
55916;BME280;41826;53.246;-6.670;2023-02-18T10:13:15;101713.28;;;11.15;100.00
55916;BME280;41826;53.246;-6.670;2023-02-18T10:15:41;101728.94;;;11.05;100.00
55916;BME280;41826;53.246;-6.670;2023-02-18T10:18:42;101727.75;;;11.09;100.00
55916;BME280;41826;53.246;-6.670;2023-02-18T10:21:12;101740.38;;;11.26;100.00
55916;BME280;41826;53.246;-6.670;2023-02-18T10:23:42;101754.75;;;11.00;100.00
55916;BME280;41826;53.246;-6.670;2023-02-18T10:26:15;101748.50;;;11.23;100.00
55916;BME280;41826;53.246;-6.670;2023-02-18T10:28:41;101746.13;;;11.20;100.00
55916;BME280;41826;53.246;-6.670;2023-02-18T10:31:09;101756.03;;;11.28;100.00
55916;BME280;41826;53.246;-6.670;2023-02-18T10:34:11;101762.63;;;11.22;100.00
55916;BME280;41826;53.246;-6.670;2023-02-18T10:36:46;101751.84;;;11.25;100.00
55916;BME280;41826;53.246;-6.670;2023-02-18T10:42:18;101762.75;;;11.10;100.00
55916;BME280;41826;53.246;-6.670;2023-02-18T10:45:01;101758.53;;;11.18;100.00
55916;BME280;41826;53.246;-6.670;2023-02-18T10:50:28;101758.19;;;11.23;100.00
55916;BME280;41826;53.246;-6.670;2023-02-18T10:53:10;101746.94;;;11.21;100.00
55916;BME280;41826;53.246;-6.670;2023-02-18T10:55:42;101748.00;;;11.41;100.00
55916;BME280;41826;53.246;-6.670;2023-02-18T10:58:32;101755.63;;;11.44;100.00
55916;BME280;41826;53.246;-6.670;2023-02-18T11:01:14;101775.91;;;11.64;100.00
55916;BME280;41826;53.246;-6.670;2023-02-18T11:03:44;101769.22;;;11.60;100.00
55916;BME280;41826;53.246;-6.670;2023-02-18T11:06:38;101760.09;;;11.76;100.00
55916;BME280;41826;53.246;-6.670;2023-02-18T11:09:05;101799.63;;;11.42;100.00
55916;BME280;41826;53.246;-6.670;2023-02-18T11:11:37;101819.69;;;11.43;100.00
55916;BME280;41826;53.246;-6.670;2023-02-18T11:14:05;101824.84;;;11.44;100.00
55916;BME280;41826;53.246;-6.670;2023-02-18T11:16:42;101819.22;;;11.49;100.00
55916;BME280;41826;53.246;-6.670;2023-02-18T11:22:13;101801.09;;;11.78;100.00
55916;BME280;41826;53.246;-6.670;2023-02-18T11:24:40;101792.38;;;11.89;100.00
55916;BME280;41826;53.246;-6.670;2023-02-18T11:27:20;101794.25;;;11.98;100.00
55916;BME280;41826;53.246;-6.670;2023-02-18T11:29:50;101812.78;;;11.97;100.00
55916;BME280;41826;53.246;-6.670;2023-02-18T11:32:17;101808.97;;;12.01;100.00
55916;BME280;41826;53.246;-6.670;2023-02-18T11:34:43;101811.00;;;11.86;100.00
55916;BME280;41826;53.246;-6.670;2023-02-18T11:37:12;101790.19;;;11.94;100.00
55916;BME280;41826;53.246;-6.670;2023-02-18T11:39:44;101803.09;;;11.42;100.00
55916;BME280;41826;53.246;-6.670;2023-02-18T11:42:14;101781.16;;;11.76;100.00
55916;BME280;41826;53.246;-6.670;2023-02-18T11:44:47;101770.94;;;11.93;100.00
55916;BME280;41826;53.246;-6.670;2023-02-18T11:49:43;101768.91;;;11.86;100.00
55916;BME280;41826;53.246;-6.670;2023-02-18T11:52:19;101760.31;;;11.84;100.00
55916;BME280;41826;53.246;-6.670;2023-02-18T11:57:27;101756.13;;;11.92;100.00
55916;BME280;41826;53.246;-6.670;2023-02-18T11:59:53;101768.44;;;11.81;100.00
55916;BME280;41826;53.246;-6.670;2023-02-18T12:05:00;101763.59;;;12.08;100.00
55916;BME280;41826;53.246;-6.670;2023-02-18T12:07:52;101779.19;;;12.00;100.00
55916;BME280;41826;53.246;-6.670;2023-02-18T12:10:30;101799.00;;;12.04;100.00
55916;BME280;41826;53.246;-6.670;2023-02-18T12:13:16;101805.97;;;11.94;100.00
55916;BME280;41826;53.246;-6.670;2023-02-18T12:28:00;101834.66;;;12.08;100.00
55916;BME280;41826;53.246;-6.670;2023-02-18T12:30:25;101852.44;;;11.73;100.00
55916;BME280;41826;53.246;-6.670;2023-02-18T12:39:00;101809.69;;;12.24;100.00
55916;BME280;41826;53.246;-6.670;2023-02-18T12:50:07;101810.09;;;11.76;100.00
55916;BME280;41826;53.246;-6.670;2023-02-18T13:03:43;101798.22;;;11.92;100.00
55916;BME280;41826;53.246;-6.670;2023-02-18T13:06:37;101791.56;;;12.09;100.00
55916;BME280;41826;53.246;-6.670;2023-02-18T13:09:20;101791.88;;;11.95;100.00
55916;BME280;41826;53.246;-6.670;2023-02-18T13:12:33;101787.75;;;12.02;100.00
55916;BME280;41826;53.246;-6.670;2023-02-18T13:14:52;101763.50;;;12.20;100.00
55916;BME280;41826;53.246;-6.670;2023-02-18T13:17:22;101766.97;;;12.20;100.00
55916;BME280;41826;53.246;-6.670;2023-02-18T13:20:03;101741.38;;;12.43;100.00
55916;BME280;41826;53.246;-6.670;2023-02-18T13:22:29;101749.91;;;12.56;100.00
55916;BME280;41826;53.246;-6.670;2023-02-18T13:24:57;101766.47;;;12.47;100.00
55916;BME280;41826;53.246;-6.670;2023-02-18T13:27:38;101759.59;;;12.56;100.00
55916;BME280;41826;53.246;-6.670;2023-02-18T13:41:02;101760.50;;;12.03;100.00
55916;BME280;41826;53.246;-6.670;2023-02-18T13:43:35;101760.31;;;12.37;100.00
55916;BME280;41826;53.246;-6.670;2023-02-18T13:46:13;101761.22;;;12.05;100.00
55916;BME280;41826;53.246;-6.670;2023-02-18T13:48:51;101773.97;;;12.10;100.00
55916;BME280;41826;53.246;-6.670;2023-02-18T13:51:40;101757.50;;;12.08;100.00
55916;BME280;41826;53.246;-6.670;2023-02-18T13:57:06;101769.50;;;12.22;100.00
55916;BME280;41826;53.246;-6.670;2023-02-18T13:59:41;101754.53;;;12.01;100.00
55916;BME280;41826;53.246;-6.670;2023-02-18T14:05:13;101741.50;;;12.21;100.00
55916;BME280;41826;53.246;-6.670;2023-02-18T14:07:49;101734.69;;;12.39;100.00
55916;BME280;41826;53.246;-6.670;2023-02-18T14:39:36;101754.41;;;12.45;100.00
55916;BME280;41826;53.246;-6.670;2023-02-18T14:50:19;101793.69;;;12.57;100.00
55916;BME280;41826;53.246;-6.670;2023-02-18T14:52:48;101796.06;;;12.61;100.00
55916;BME280;41826;53.246;-6.670;2023-02-18T14:55:22;101796.59;;;12.54;100.00
55916;BME280;41826;53.246;-6.670;2023-02-18T15:00:47;101797.56;;;12.53;100.00
55916;BME280;41826;53.246;-6.670;2023-02-18T15:03:15;101799.16;;;12.45;100.00
55916;BME280;41826;53.246;-6.670;2023-02-18T15:05:42;101805.72;;;12.50;100.00
55916;BME280;41826;53.246;-6.670;2023-02-18T15:08:15;101820.44;;;12.53;100.00
55916;BME280;41826;53.246;-6.670;2023-02-18T15:10:43;101822.22;;;12.52;100.00
55916;BME280;41826;53.246;-6.670;2023-02-18T15:13:23;101823.25;;;12.40;100.00